createdAt,value
2023-03-14T00:00:23.356Z,0.76
2023-03-14T00:04:23.371Z,1.08
2023-03-14T00:08:23.131Z,0.62
2023-03-14T00:12:23.241Z,1.07
2023-03-14T00:16:23.446Z,0.96
2023-03-14T00:20:23.515Z,0.83
2023-03-14T00:24:23.637Z,1.05
2023-03-14T00:28:23.830Z,0.91
2023-03-14T00:32:23.984Z,1.03
2023-03-14T00:36:24.092Z,0.79
2023-03-14T00:40:24.255Z,0.96
2023-03-14T00:44:24.350Z,0.66
2023-03-14T00:48:24.490Z,1.05
2023-03-14T00:52:24.669Z,0.83
2023-03-14T00:56:24.856Z,0.81
2023-03-14T01:00:24.978Z,1.02
2023-03-14T01:04:25.129Z,0.89
2023-03-14T01:08:25.230Z,1.00
2023-03-14T01:12:25.403Z,0.94
2023-03-14T01:16:25.696Z,0.91
2023-03-14T01:20:25.784Z,0.94
2023-03-14T01:24:25.937Z,1.22
2023-03-14T01:28:26.009Z,0.91
2023-03-14T01:32:26.198Z,1.05
2023-03-14T01:36:26.289Z,0.97
2023-03-14T01:44:45.259Z,0.90
2023-03-14T01:48:45.633Z,0.98
2023-03-14T01:52:45.958Z,0.64
2023-03-14T01:56:45.549Z,1.13
2023-03-14T02:00:45.554Z,1.19
2023-03-14T02:04:45.508Z,0.78
2023-03-14T02:08:45.467Z,0.79
2023-03-14T02:12:45.378Z,0.66
2023-03-14T02:16:45.585Z,0.90
2023-03-14T02:20:45.617Z,1.00
2023-03-14T02:24:45.977Z,0.74
2023-03-14T02:28:45.948Z,1.06
2023-03-14T02:32:45.831Z,1.20
2023-03-14T02:36:45.943Z,0.74
2023-03-14T02:40:46.067Z,0.63
2023-03-14T02:44:49.466Z,0.52
2023-03-14T02:48:46.202Z,0.97
2023-03-14T02:52:46.110Z,0.90
2023-03-14T02:56:46.085Z,0.97
2023-03-14T03:00:46.479Z,0.66
2023-03-14T03:04:46.061Z,0.94
2023-03-14T03:08:45.973Z,1.00
2023-03-14T03:12:45.984Z,0.82
2023-03-14T03:16:45.959Z,0.73
2023-03-14T03:20:47.562Z,0.86
2023-03-14T03:24:45.939Z,0.84
2023-03-14T03:28:46.069Z,0.96
2023-03-14T03:32:46.235Z,0.94
2023-03-14T03:36:46.332Z,0.76
2023-03-14T03:40:47.082Z,0.86
2023-03-14T03:44:46.742Z,0.92
2023-03-14T03:48:47.034Z,0.84
2023-03-14T03:52:47.569Z,0.78
2023-03-14T03:56:47.326Z,0.90
2023-03-14T04:00:47.625Z,0.71
2023-03-14T04:04:47.752Z,0.86
2023-03-14T04:08:47.897Z,0.59
2023-03-14T04:12:48.147Z,0.94
2023-03-14T04:16:48.565Z,0.60
2023-03-14T04:20:48.589Z,0.72
2023-03-14T04:24:49.132Z,0.83
2023-03-14T04:28:49.045Z,0.86
2023-03-14T04:32:49.291Z,0.89
2023-03-14T04:36:49.440Z,0.93
2023-03-14T04:40:49.640Z,0.98
2023-03-14T04:44:50.608Z,0.82
2023-03-14T04:48:50.625Z,0.93
2023-03-14T04:52:50.358Z,0.90
2023-03-14T04:56:50.298Z,0.80
2023-03-14T05:00:50.517Z,0.97
2023-03-14T05:04:50.139Z,0.77
2023-03-14T05:08:50.175Z,0.89
2023-03-14T05:12:52.030Z,0.83
2023-03-14T05:16:50.057Z,0.97
2023-03-14T05:20:50.099Z,2.21
2023-03-14T05:24:50.027Z,0.67
2023-03-14T05:28:50.059Z,0.92
2023-03-14T05:32:50.124Z,1.08
2023-03-14T05:36:49.921Z,0.90
2023-03-14T05:40:49.869Z,0.77
2023-03-14T05:44:49.847Z,1.06
2023-03-14T05:48:49.821Z,0.94
2023-03-14T05:52:49.810Z,0.82
2023-03-14T05:56:49.732Z,0.55
2023-03-14T06:00:49.904Z,0.89
2023-03-14T06:04:49.723Z,1.09
2023-03-14T06:08:49.701Z,0.69
2023-03-14T06:12:50.060Z,0.95
2023-03-14T06:16:50.239Z,0.76
2023-03-14T06:20:49.584Z,0.69
2023-03-14T06:24:49.546Z,0.79
2023-03-14T06:28:49.541Z,0.75
2023-03-14T06:32:49.697Z,0.81
2023-03-14T06:36:49.418Z,1.47
2023-03-14T06:40:49.422Z,2.67
2023-03-14T06:44:49.554Z,3.91
2023-03-14T06:48:49.688Z,2.75
2023-03-14T06:52:50.624Z,3.17
2023-03-14T06:56:49.997Z,3.10
2023-03-14T07:00:50.000Z,3.68
2023-03-14T07:04:50.230Z,3.32
2023-03-14T07:08:50.113Z,3.33
2023-03-14T07:12:50.020Z,3.16
2023-03-14T07:16:49.984Z,3.04
2023-03-14T07:20:51.498Z,2.81
2023-03-14T07:24:50.179Z,2.83
2023-03-14T07:28:49.908Z,3.27
2023-03-14T07:32:49.875Z,3.43
2023-03-14T07:36:50.651Z,2.62
2023-03-14T07:40:59.980Z,3.61
2023-03-14T07:44:49.805Z,3.98
2023-03-14T07:48:49.721Z,4.03
2023-03-14T07:52:49.715Z,3.40
2023-03-14T07:56:50.635Z,3.14
2023-03-14T08:00:49.568Z,4.03
2023-03-14T08:05:04.062Z,3.77
2023-03-14T08:08:49.734Z,3.93
2023-03-14T08:12:49.817Z,3.79
2023-03-14T08:16:49.871Z,2.48
2023-03-14T08:20:50.010Z,3.29
2023-03-14T08:24:50.131Z,4.02
2023-03-14T08:28:50.689Z,3.55
2023-03-14T08:32:50.509Z,3.32
2023-03-14T08:36:50.529Z,3.56
2023-03-14T08:40:50.769Z,5.13
2023-03-14T08:44:50.905Z,4.02
2023-03-14T08:48:51.045Z,3.48
2023-03-14T08:52:51.220Z,2.98
2023-03-14T08:56:51.241Z,4.21
2023-03-14T09:00:51.278Z,3.70
2023-03-14T09:04:51.248Z,3.65
2023-03-14T09:08:51.253Z,4.59
2023-03-14T09:12:51.305Z,3.40
2023-03-14T09:16:51.265Z,4.17
2023-03-14T09:20:51.413Z,3.46
2023-03-14T09:24:51.593Z,4.03
2023-03-14T09:28:51.694Z,2.78
2023-03-14T09:32:51.818Z,2.61
2023-03-14T09:36:52.139Z,1.63
2023-03-14T09:40:52.048Z,1.79
2023-03-14T09:44:52.284Z,2.42
2023-03-14T09:48:52.682Z,1.49
2023-03-14T09:52:52.490Z,2.03
2023-03-14T09:56:52.495Z,2.40
2023-03-14T10:00:52.828Z,1.96
2023-03-14T10:04:59.688Z,2.10
2023-03-14T10:08:53.191Z,2.19
2023-03-14T10:12:54.746Z,1.92
2023-03-14T10:16:52.886Z,2.14
2023-03-14T10:20:52.828Z,3.44
2023-03-14T10:24:52.718Z,2.34
2023-03-14T10:28:52.748Z,1.92
2023-03-14T10:32:52.878Z,2.22
2023-03-14T10:36:52.778Z,2.43
2023-03-14T10:40:52.909Z,2.63
2023-03-14T10:44:53.102Z,2.79
2023-03-14T10:48:53.057Z,1.93
2023-03-14T10:53:03.348Z,3.16
2023-03-14T10:56:54.004Z,1.97
2023-03-14T11:00:52.901Z,2.07
2023-03-14T11:04:52.892Z,2.43
2023-03-14T11:08:52.864Z,1.85
2023-03-14T11:12:52.890Z,2.84
2023-03-14T11:16:52.808Z,2.55
2023-03-14T11:20:52.848Z,1.63
2023-03-14T11:24:53.113Z,3.11
2023-03-14T11:28:53.218Z,5.82
2023-03-14T11:32:53.028Z,1.47
2023-03-14T11:36:52.946Z,2.09
2023-03-14T11:40:52.928Z,1.93
2023-03-14T11:44:52.906Z,1.75
2023-03-14T11:48:52.871Z,2.34
2023-03-14T11:52:52.799Z,1.88
2023-03-14T11:56:53.205Z,1.33
2023-03-14T12:00:52.802Z,1.55
2023-03-14T12:04:52.657Z,1.78
2023-03-14T12:08:52.658Z,1.77
2023-03-14T12:12:52.742Z,1.87
2023-03-14T12:16:56.021Z,1.69
2023-03-14T12:20:52.775Z,1.20
2023-03-14T12:24:52.697Z,1.23
2023-03-14T12:28:52.633Z,1.33
2023-03-14T12:32:52.888Z,1.13
2023-03-14T12:36:52.701Z,1.38
2023-03-14T12:40:52.706Z,1.65
2023-03-14T12:44:52.941Z,1.07
2023-03-14T12:48:56.336Z,0.95
2023-03-14T12:52:52.809Z,1.46
2023-03-14T12:56:52.782Z,0.88
2023-03-14T13:00:52.761Z,1.00
2023-03-14T13:04:52.735Z,1.69
2023-03-14T13:08:52.697Z,1.12
2023-03-14T13:12:52.679Z,1.15
2023-03-14T13:16:52.979Z,0.91
2023-03-14T13:20:52.690Z,0.93
2023-03-14T13:24:52.596Z,1.14
2023-03-14T13:28:52.572Z,0.75
2023-03-14T13:32:52.601Z,1.22
2023-03-14T13:36:52.481Z,0.95
2023-03-14T13:40:52.498Z,0.94
2023-03-14T13:44:52.434Z,1.05
2023-03-14T13:48:52.408Z,0.85
2023-03-14T13:52:52.327Z,0.56
2023-03-14T13:56:52.518Z,1.74
2023-03-14T14:00:52.589Z,0.72
2023-03-14T14:04:52.659Z,0.72
2023-03-14T14:08:52.700Z,0.54
2023-03-14T14:12:52.743Z,0.77
2023-03-14T14:16:53.678Z,0.94
2023-03-14T14:20:52.731Z,0.76
2023-03-14T14:24:52.808Z,0.86
2023-03-14T14:28:52.743Z,1.00
2023-03-14T14:32:52.792Z,0.62
2023-03-14T14:36:52.736Z,1.37
2023-03-14T14:40:52.711Z,0.93
2023-03-14T14:44:52.692Z,0.78
2023-03-14T14:48:52.643Z,0.71
2023-03-14T14:52:52.741Z,0.87
2023-03-14T14:56:52.568Z,0.71
2023-03-14T15:00:52.559Z,0.82
2023-03-14T15:04:52.460Z,1.67
2023-03-14T15:08:52.439Z,1.13
2023-03-14T15:12:52.430Z,0.61
2023-03-14T15:16:52.387Z,0.66
2023-03-14T15:20:52.401Z,0.79
2023-03-14T15:24:52.295Z,0.60
2023-03-14T15:28:52.265Z,0.72
2023-03-14T15:32:52.296Z,0.89
2023-03-14T15:36:52.221Z,0.99
2023-03-14T15:40:52.151Z,0.85
2023-03-14T15:44:52.326Z,0.63
2023-03-14T15:48:52.573Z,0.71
2023-03-14T15:52:52.743Z,0.54
2023-03-14T15:56:52.883Z,0.85
2023-03-14T16:00:53.085Z,0.98
2023-03-14T16:04:53.086Z,0.93
2023-03-14T16:08:53.105Z,0.50
2023-03-14T16:12:53.132Z,0.92
2023-03-14T16:16:53.210Z,0.53
2023-03-14T16:20:53.280Z,0.55
2023-03-14T16:24:53.161Z,0.52
2023-03-14T16:28:53.270Z,0.48
2023-03-14T16:32:53.273Z,1.02
2023-03-14T16:36:53.341Z,0.80
2023-03-14T16:40:53.165Z,1.03
2023-03-14T16:44:53.193Z,0.58
2023-03-14T16:48:53.241Z,0.71
2023-03-14T16:52:53.139Z,0.74
2023-03-14T16:56:53.181Z,0.65
2023-03-14T17:00:53.225Z,0.74
2023-03-14T17:04:53.186Z,0.73
2023-03-14T17:08:53.360Z,0.62
2023-03-14T17:12:53.233Z,0.68
2023-03-14T17:16:53.205Z,0.86
2023-03-14T17:20:53.151Z,0.51
2023-03-14T17:24:53.163Z,0.58
2023-03-14T17:28:53.051Z,0.50
2023-03-14T17:32:53.093Z,0.66
2023-03-14T17:36:53.026Z,0.52
2023-03-14T17:40:52.963Z,0.69
2023-03-14T17:44:52.923Z,0.50
2023-03-14T17:48:52.847Z,1.27
2023-03-14T17:52:52.883Z,0.78
2023-03-14T17:56:52.864Z,0.47
2023-03-14T18:00:52.795Z,0.44
2023-03-14T18:04:52.767Z,0.50
2023-03-14T18:08:52.727Z,0.80
2023-03-14T18:12:52.672Z,0.55
2023-03-14T18:16:52.780Z,0.59
2023-03-14T18:20:53.077Z,0.53
2023-03-14T18:24:53.326Z,0.57
2023-03-14T18:28:53.042Z,0.49
2023-03-14T18:32:53.169Z,0.41
2023-03-14T18:36:52.948Z,0.42
2023-03-14T18:40:52.903Z,0.38
2023-03-14T18:44:52.894Z,0.45
2023-03-14T18:48:52.934Z,0.40
2023-03-14T18:52:52.849Z,0.84
2023-03-14T18:56:52.876Z,0.54
2023-03-14T19:00:52.764Z,0.61
2023-03-14T19:04:52.672Z,0.45
2023-03-14T19:08:52.640Z,0.51
2023-03-14T19:12:52.670Z,0.66
2023-03-14T19:16:52.625Z,0.49
2023-03-14T19:20:52.540Z,0.39
2023-03-14T19:24:52.647Z,0.40
2023-03-14T19:33:11.594Z,0.24
2023-03-14T19:37:11.507Z,0.36
2023-03-14T19:41:11.496Z,0.50
2023-03-14T19:45:11.457Z,0.36
2023-03-14T19:49:11.345Z,0.61
2023-03-14T19:53:11.374Z,0.60
2023-03-14T19:57:11.294Z,0.43
2023-03-14T20:01:11.347Z,0.47
2023-03-14T20:05:11.245Z,0.62
2023-03-14T20:09:11.184Z,0.63
2023-03-14T20:13:20.751Z,0.36
2023-03-14T20:17:12.202Z,0.57
2023-03-14T20:21:11.108Z,0.43
2023-03-14T20:25:11.120Z,0.47
2023-03-14T20:29:11.288Z,0.60
2023-03-14T20:33:11.409Z,0.56
2023-03-14T20:37:26.290Z,0.39
2023-03-14T20:41:11.473Z,0.61
2023-03-14T20:45:11.451Z,0.36
2023-03-14T20:49:11.413Z,0.46
2023-03-14T20:53:11.398Z,0.45
2023-03-14T20:57:11.321Z,0.37
2023-03-14T21:01:11.335Z,0.61
2023-03-14T21:05:11.372Z,0.84
2023-03-14T21:09:11.234Z,0.33
2023-03-14T21:13:11.204Z,0.62
2023-03-14T21:17:11.149Z,0.37
2023-03-14T21:21:11.101Z,0.71
2023-03-14T21:25:11.070Z,0.72
2023-03-14T21:29:11.093Z,0.48
2023-03-14T21:33:11.290Z,0.54
2023-03-14T21:37:11.455Z,0.38
2023-03-14T21:41:11.661Z,0.32
2023-03-14T21:45:11.992Z,0.57
2023-03-14T21:49:12.030Z,0.34
2023-03-14T21:53:12.287Z,0.62
2023-03-14T21:57:12.473Z,0.55
2023-03-14T22:05:31.510Z,0.57
2023-03-14T22:09:31.450Z,0.32
2023-03-14T22:13:31.419Z,0.64
2023-03-14T22:17:31.333Z,0.27
2023-03-14T22:21:31.334Z,0.28
2023-03-14T22:25:31.319Z,0.46
2023-03-14T22:29:31.288Z,0.77
2023-03-14T22:33:31.300Z,0.47
2023-03-14T22:37:31.165Z,0.37
2023-03-14T22:41:31.131Z,0.47
2023-03-14T22:45:31.126Z,0.55
2023-03-14T22:49:31.047Z,0.53
2023-03-14T22:53:31.038Z,0.35
2023-03-14T22:57:31.036Z,0.37
2023-03-14T23:01:30.972Z,0.47
2023-03-14T23:05:30.916Z,0.54
2023-03-14T23:09:30.971Z,0.44
2023-03-14T23:13:30.824Z,0.53
2023-03-14T23:17:30.754Z,0.38
2023-03-14T23:21:30.780Z,0.73
2023-03-14T23:25:33.734Z,0.41
2023-03-14T23:29:31.732Z,0.49
2023-03-14T23:33:30.770Z,0.53
2023-03-14T23:37:30.768Z,0.19
2023-03-14T23:41:30.760Z,0.39
2023-03-14T23:45:30.684Z,0.76
2023-03-14T23:49:30.672Z,0.51
2023-03-14T23:53:30.578Z,0.36
2023-03-14T23:57:30.568Z,0.29
